createdAt,value
2019-02-28T00:03:53.230Z,57.10
2019-02-28T00:08:58.678Z,57.50
2019-02-28T00:14:04.117Z,58.30
2019-02-28T00:19:09.733Z,58.10
2019-02-28T00:24:15.212Z,57.50
2019-02-28T00:29:20.620Z,56.70
2019-02-28T00:34:26.030Z,56.80
2019-02-28T00:39:34.762Z,57.00
2019-02-28T00:44:38.658Z,56.30
2019-02-28T00:49:44.017Z,57.00
2019-02-28T00:54:49.508Z,56.90
2019-02-28T00:59:54.935Z,56.90
2019-02-28T01:05:01.309Z,56.50
2019-02-28T01:10:10.708Z,55.80
2019-02-28T01:15:17.581Z,55.90
2019-02-28T01:20:23.016Z,55.80
2019-02-28T01:25:28.385Z,56.00
2019-02-28T01:30:33.793Z,56.40
2019-02-28T01:35:40.797Z,56.60
2019-02-28T01:40:46.260Z,56.40
2019-02-28T01:45:51.624Z,55.20
2019-02-28T01:50:57.047Z,54.90
2019-02-28T01:56:03.241Z,55.00
2019-02-28T02:01:08.938Z,54.90
2019-02-28T02:06:14.302Z,53.00
2019-02-28T02:11:19.662Z,52.50
2019-02-28T02:16:27.697Z,51.90
2019-02-28T02:21:34.914Z,52.00
2019-02-28T02:26:39.109Z,52.50
2019-02-28T02:31:44.457Z,52.60
2019-02-28T02:36:54.255Z,53.10
2019-02-28T02:41:56.951Z,53.10
2019-02-28T02:47:02.443Z,53.20
2019-02-28T02:52:07.956Z,53.70
2019-02-28T02:57:19.538Z,53.60
2019-02-28T03:02:28.762Z,55.10
2019-02-28T03:07:32.010Z,56.70
2019-02-28T03:12:37.444Z,55.90
2019-02-28T03:17:46.478Z,56.20
2019-02-28T03:22:50.062Z,57.30
2019-02-28T03:27:56.736Z,57.30
2019-02-28T03:33:02.488Z,57.70
2019-02-28T03:38:11.301Z,58.70
2019-02-28T03:43:15.065Z,58.80
2019-02-28T03:48:20.458Z,59.10
2019-02-28T03:53:25.955Z,58.30
2019-02-28T03:58:31.509Z,57.70
2019-02-28T04:03:37.056Z,57.70
2019-02-28T04:08:42.472Z,57.60
2019-02-28T04:13:47.893Z,56.90
2019-02-28T04:18:53.331Z,56.70
2019-02-28T04:23:58.675Z,56.90
2019-02-28T04:29:04.026Z,56.90
2019-02-28T04:34:12.885Z,57.00
2019-02-28T04:39:16.425Z,57.40
2019-02-28T04:44:21.810Z,57.60
2019-02-28T04:49:27.182Z,57.10
2019-02-28T04:54:32.673Z,56.50
2019-02-28T04:59:37.998Z,56.40
2019-02-28T05:04:43.531Z,56.10
2019-02-28T05:09:50.542Z,56.20
2019-02-28T05:14:58.547Z,56.10
2019-02-28T05:20:02.995Z,56.50
2019-02-28T05:25:09.992Z,56.70
2019-02-28T05:30:19.519Z,56.80
2019-02-28T05:35:26.646Z,56.70
2019-02-28T05:40:30.826Z,56.80
2019-02-28T05:45:36.182Z,55.40
2019-02-28T05:50:41.683Z,55.70
2019-02-28T05:55:47.087Z,55.00
2019-02-28T06:00:52.441Z,54.10
2019-02-28T06:05:57.983Z,54.30
2019-02-28T06:11:03.470Z,54.00
2019-02-28T06:16:12.306Z,53.90
2019-02-28T06:21:15.889Z,52.90
2019-02-28T06:26:21.303Z,53.00
2019-02-28T06:31:26.658Z,52.70
2019-02-28T06:36:32.190Z,51.60
2019-02-28T06:41:39.842Z,50.90
2019-02-28T06:46:44.583Z,48.70
2019-02-28T06:51:51.338Z,45.50
2019-02-28T06:56:57.053Z,42.70
2019-02-28T07:02:02.501Z,41.20
2019-02-28T07:07:10.254Z,41.80
2019-02-28T07:12:15.067Z,43.10
2019-02-28T07:17:20.430Z,44.00
2019-02-28T07:22:26.691Z,46.50
2019-02-28T07:27:32.044Z,47.10
2019-02-28T07:32:37.447Z,44.70
2019-02-28T07:37:42.930Z,41.90
2019-02-28T07:42:48.330Z,40.30
2019-02-28T07:47:53.747Z,39.20
2019-02-28T07:52:59.117Z,39.80
2019-02-28T07:58:04.878Z,38.80
2019-02-28T08:03:11.293Z,39.30
2019-02-28T08:08:17.496Z,38.70
2019-02-28T08:13:22.931Z,38.90
2019-02-28T08:18:28.418Z,41.00
2019-02-28T08:23:33.917Z,43.10
2019-02-28T08:28:39.671Z,40.70
2019-02-28T08:33:48.146Z,40.20
2019-02-28T08:38:52.082Z,38.00
2019-02-28T08:43:57.437Z,40.50
2019-02-28T08:49:06.314Z,38.00
2019-02-28T08:54:09.841Z,38.20
2019-02-28T08:59:18.232Z,37.10
2019-02-28T09:04:22.498Z,36.70
2019-02-28T09:09:27.862Z,36.70
2019-02-28T09:14:33.394Z,37.80
2019-02-28T09:19:38.878Z,36.10
2019-02-28T09:24:46.734Z,35.90
2019-02-28T09:29:54.356Z,35.60
2019-02-28T09:34:58.461Z,35.10
2019-02-28T09:40:05.495Z,34.60
2019-02-28T09:45:19.102Z,34.80
2019-02-28T09:50:24.582Z,34.10
2019-02-28T09:55:34.369Z,35.40
2019-02-28T10:00:37.298Z,35.80
2019-02-28T10:05:43.342Z,35.50
2019-02-28T10:10:52.346Z,36.90
2019-02-28T10:15:56.328Z,37.40
2019-02-28T10:21:02.642Z,42.30
2019-02-28T10:26:08.315Z,41.70
2019-02-28T10:31:13.754Z,42.60
2019-02-28T10:36:19.270Z,44.00
2019-02-28T10:41:27.976Z,44.50
2019-02-28T10:46:31.896Z,44.20
2019-02-28T10:51:37.233Z,42.70
2019-02-28T10:56:47.400Z,43.40
2019-02-28T11:01:52.968Z,42.80
2019-02-28T11:06:59.327Z,44.50
2019-02-28T11:12:05.973Z,43.40
2019-02-28T11:17:13.825Z,44.00
2019-02-28T11:22:18.799Z,45.80
2019-02-28T11:27:24.296Z,42.30
2019-02-28T11:32:29.987Z,42.70
2019-02-28T11:37:35.772Z,43.20
2019-02-28T11:42:41.534Z,42.40
2019-02-28T11:47:48.706Z,42.50
2019-02-28T11:52:54.132Z,41.70
2019-02-28T11:57:59.693Z,42.00
2019-02-28T12:03:05.899Z,41.80
2019-02-28T12:08:11.570Z,43.20
2019-02-28T12:13:19.581Z,45.10
2019-02-28T12:18:26.117Z,43.40
2019-02-28T12:23:31.251Z,43.00
2019-02-28T12:28:38.419Z,42.80
2019-02-28T12:33:43.670Z,44.20
2019-02-28T12:38:49.150Z,41.60
2019-02-28T12:43:54.575Z,42.00
2019-02-28T12:49:00.073Z,40.70
2019-02-28T12:54:05.591Z,40.60
2019-02-28T12:59:10.970Z,40.60
2019-02-28T13:04:16.376Z,39.40
2019-02-28T13:09:21.896Z,39.90
2019-02-28T13:14:27.384Z,40.20
2019-02-28T13:19:32.906Z,39.10
2019-02-28T13:24:38.324Z,40.10
2019-02-28T13:29:43.758Z,41.00
2019-02-28T13:34:49.262Z,40.80
2019-02-28T13:39:54.764Z,41.00
2019-02-28T13:45:00.324Z,43.00
2019-02-28T13:50:08.805Z,45.30
2019-02-28T13:55:19.027Z,45.90
2019-02-28T14:00:28.182Z,46.20
2019-02-28T14:05:38.660Z,45.40
2019-02-28T14:10:41.211Z,45.20
2019-02-28T14:15:52.604Z,45.50
2019-02-28T14:20:59.532Z,44.50
2019-02-28T14:26:05.446Z,44.90
2019-02-28T14:31:11.085Z,43.90
2019-02-28T14:36:16.575Z,45.20
2019-02-28T14:41:24.631Z,45.80
2019-02-28T14:46:29.127Z,46.20
2019-02-28T14:51:34.546Z,45.60
2019-02-28T14:56:42.261Z,45.60
2019-02-28T15:01:49.568Z,45.70
2019-02-28T15:06:55.306Z,47.20
2019-02-28T15:12:00.863Z,47.30
2019-02-28T15:17:07.696Z,48.10
2019-02-28T15:22:17.228Z,49.80
2019-02-28T15:27:21.465Z,49.50
2019-02-28T15:32:27.063Z,49.20
2019-02-28T15:37:33.677Z,49.90
2019-02-28T15:42:42.629Z,49.30
2019-02-28T15:47:46.927Z,49.30
2019-02-28T15:52:52.946Z,49.90
2019-02-28T15:57:58.521Z,49.50
2019-02-28T16:03:04.573Z,49.90
2019-02-28T16:08:10.787Z,50.50
2019-02-28T16:13:17.471Z,50.00
2019-02-28T16:18:22.989Z,50.40
2019-02-28T16:23:30.924Z,51.20
2019-02-28T16:28:39.447Z,51.20
2019-02-28T16:33:43.887Z,51.00
2019-02-28T16:38:49.412Z,51.00
2019-02-28T16:43:55.473Z,51.20
2019-02-28T16:49:01.838Z,51.40
2019-02-28T16:54:07.386Z,51.80
2019-02-28T16:59:12.821Z,52.90
2019-02-28T17:04:18.488Z,52.90
2019-02-28T17:09:26.568Z,53.00
2019-02-28T17:14:35.718Z,52.50
2019-02-28T17:19:41.592Z,52.60
2019-02-28T17:24:47.028Z,51.40
2019-02-28T17:29:54.074Z,52.10
2019-02-28T17:34:59.660Z,53.00
2019-02-28T17:40:11.099Z,53.30
2019-02-28T17:45:20.239Z,52.60
2019-02-28T17:50:44.060Z,53.20
2019-02-28T17:56:03.806Z,53.90
2019-02-28T18:01:11.618Z,54.90
2019-02-28T18:06:47.298Z,56.50
2019-02-28T18:12:05.974Z,55.70
2019-02-28T18:17:44.908Z,55.20
2019-02-28T18:22:55.864Z,53.80
2019-02-28T18:28:22.631Z,53.30
2019-02-28T18:33:26.123Z,52.60
2019-02-28T18:38:31.700Z,52.20
2019-02-28T18:43:37.288Z,52.40
2019-02-28T18:48:43.422Z,51.90
2019-02-28T18:53:49.076Z,53.50
2019-02-28T18:58:54.960Z,54.50
2019-02-28T19:04:01.360Z,54.80
2019-02-28T19:09:16.914Z,55.00
2019-02-28T19:14:22.522Z,54.90
2019-02-28T19:19:28.903Z,53.80
2019-02-28T19:24:35.438Z,53.90
2019-02-28T19:29:41.764Z,54.90
2019-02-28T19:34:48.402Z,54.50
2019-02-28T19:39:53.847Z,54.30
2019-02-28T19:44:59.499Z,53.80
2019-02-28T19:50:07.892Z,54.20
2019-02-28T19:55:16.509Z,54.20
2019-02-28T20:00:22.093Z,53.80
2019-02-28T20:05:27.596Z,53.20
2019-02-28T20:10:33.106Z,53.00
2019-02-28T20:15:40.377Z,51.90
2019-02-28T20:20:46.461Z,51.20
2019-02-28T20:25:52.047Z,50.20
2019-02-28T20:30:58.359Z,50.10
2019-02-28T20:36:03.884Z,49.80
2019-02-28T20:41:09.535Z,50.20
2019-02-28T20:46:14.888Z,51.50
2019-02-28T20:51:20.306Z,52.60
2019-02-28T20:56:25.732Z,52.00
2019-02-28T21:01:31.664Z,53.50
2019-02-28T21:06:37.447Z,54.00
2019-02-28T21:11:42.959Z,54.00
2019-02-28T21:16:48.484Z,53.90
2019-02-28T21:21:53.910Z,54.10
2019-02-28T21:26:59.420Z,54.50
2019-02-28T21:32:04.977Z,54.20
2019-02-28T21:37:10.843Z,53.20
2019-02-28T21:42:17.254Z,54.60
2019-02-28T21:47:22.607Z,53.90
2019-02-28T21:52:27.989Z,53.40
2019-02-28T21:57:33.461Z,54.90
2019-02-28T22:02:38.949Z,55.30
2019-02-28T22:07:44.822Z,56.50
2019-02-28T22:12:50.324Z,57.50
2019-02-28T22:17:56.625Z,59.00
2019-02-28T22:23:02.121Z,63.60
2019-02-28T22:28:07.541Z,65.60
2019-02-28T22:33:27.564Z,67.00
2019-02-28T22:38:33.046Z,65.50
2019-02-28T22:43:38.405Z,64.50
2019-02-28T22:48:43.842Z,66.30
2019-02-28T22:53:49.355Z,67.60
2019-02-28T22:58:54.777Z,67.20
2019-02-28T23:04:00.295Z,69.40
2019-02-28T23:09:06.279Z,69.60
2019-02-28T23:14:11.789Z,69.50
2019-02-28T23:19:17.238Z,68.90
2019-02-28T23:24:22.756Z,67.80
2019-02-28T23:29:28.782Z,66.20
2019-02-28T23:34:36.166Z,66.40
2019-02-28T23:39:41.669Z,68.70
2019-02-28T23:44:47.086Z,70.40
2019-02-28T23:49:52.433Z,70.40
2019-02-28T23:54:57.788Z,70.00
